sensor_id;sensor_type;location;lat;lon;timestamp;P1;durP1;ratioP1;P2;durP2;ratioP2
13061;SDS011;6597;52.218;9.882;2023-10-09T00:00:32;5.50;;;1.77;;
13061;SDS011;6597;52.218;9.882;2023-10-09T00:03:20;5.27;;;1.80;;
13061;SDS011;6597;52.218;9.882;2023-10-09T00:05:48;6.47;;;1.80;;
13061;SDS011;6597;52.218;9.882;2023-10-09T00:08:18;6.20;;;1.83;;
13061;SDS011;6597;52.218;9.882;2023-10-09T00:10:46;6.03;;;2.10;;
13061;SDS011;6597;52.218;9.882;2023-10-09T00:13:18;5.17;;;1.90;;
13061;SDS011;6597;52.218;9.882;2023-10-09T00:15:46;10.97;;;2.47;;
13061;SDS011;6597;52.218;9.882;2023-10-09T00:18:18;5.97;;;2.33;;
13061;SDS011;6597;52.218;9.882;2023-10-09T00:20:53;4.23;;;1.57;;
13061;SDS011;6597;52.218;9.882;2023-10-09T00:23:20;5.43;;;1.87;;
13061;SDS011;6597;52.218;9.882;2023-10-09T00:25:50;5.47;;;2.00;;
13061;SDS011;6597;52.218;9.882;2023-10-09T00:28:34;7.90;;;2.60;;
13061;SDS011;6597;52.218;9.882;2023-10-09T00:31:04;3.90;;;1.80;;
13061;SDS011;6597;52.218;9.882;2023-10-09T00:33:39;5.47;;;1.97;;
13061;SDS011;6597;52.218;9.882;2023-10-09T00:36:07;5.40;;;1.83;;
13061;SDS011;6597;52.218;9.882;2023-10-09T00:38:35;7.20;;;2.20;;
13061;SDS011;6597;52.218;9.882;2023-10-09T00:41:04;5.87;;;1.90;;
13061;SDS011;6597;52.218;9.882;2023-10-09T00:43:36;6.00;;;2.10;;
13061;SDS011;6597;52.218;9.882;2023-10-09T00:46:05;6.60;;;2.00;;
13061;SDS011;6597;52.218;9.882;2023-10-09T00:48:37;6.93;;;2.47;;
13061;SDS011;6597;52.218;9.882;2023-10-09T00:51:06;6.27;;;2.00;;
13061;SDS011;6597;52.218;9.882;2023-10-09T00:53:42;7.97;;;2.10;;
13061;SDS011;6597;52.218;9.882;2023-10-09T00:56:10;8.47;;;2.60;;
13061;SDS011;6597;52.218;9.882;2023-10-09T00:58:44;7.30;;;2.50;;
13061;SDS011;6597;52.218;9.882;2023-10-09T01:01:15;6.30;;;2.10;;
13061;SDS011;6597;52.218;9.882;2023-10-09T01:03:41;6.40;;;2.00;;
13061;SDS011;6597;52.218;9.882;2023-10-09T01:06:09;6.13;;;2.10;;
13061;SDS011;6597;52.218;9.882;2023-10-09T01:08:46;9.43;;;2.30;;
13061;SDS011;6597;52.218;9.882;2023-10-09T01:11:21;10.07;;;1.97;;
13061;SDS011;6597;52.218;9.882;2023-10-09T01:13:54;7.93;;;2.27;;
13061;SDS011;6597;52.218;9.882;2023-10-09T01:16:38;7.40;;;2.50;;
13061;SDS011;6597;52.218;9.882;2023-10-09T01:19:07;7.20;;;2.00;;
13061;SDS011;6597;52.218;9.882;2023-10-09T01:21:45;2.53;;;1.50;;
13061;SDS011;6597;52.218;9.882;2023-10-09T01:24:15;5.00;;;2.20;;
13061;SDS011;6597;52.218;9.882;2023-10-09T01:26:41;10.33;;;3.07;;
13061;SDS011;6597;52.218;9.882;2023-10-09T01:29:12;8.57;;;2.57;;
13061;SDS011;6597;52.218;9.882;2023-10-09T01:31:41;6.50;;;2.33;;
13061;SDS011;6597;52.218;9.882;2023-10-09T01:34:12;9.33;;;2.47;;
13061;SDS011;6597;52.218;9.882;2023-10-09T01:36:39;5.97;;;1.80;;
13061;SDS011;6597;52.218;9.882;2023-10-09T01:39:06;12.73;;;2.63;;
13061;SDS011;6597;52.218;9.882;2023-10-09T01:41:36;10.60;;;2.63;;
13061;SDS011;6597;52.218;9.882;2023-10-09T01:44:11;7.40;;;2.57;;
13061;SDS011;6597;52.218;9.882;2023-10-09T01:46:41;8.67;;;3.00;;
13061;SDS011;6597;52.218;9.882;2023-10-09T01:49:11;10.63;;;3.13;;
13061;SDS011;6597;52.218;9.882;2023-10-09T01:51:43;11.17;;;2.80;;
13061;SDS011;6597;52.218;9.882;2023-10-09T01:54:09;12.43;;;3.37;;
13061;SDS011;6597;52.218;9.882;2023-10-09T01:56:43;8.57;;;3.10;;
13061;SDS011;6597;52.218;9.882;2023-10-09T01:59:12;8.77;;;3.00;;
13061;SDS011;6597;52.218;9.882;2023-10-09T02:01:38;16.10;;;3.67;;
13061;SDS011;6597;52.218;9.882;2023-10-09T02:04:13;11.83;;;3.30;;
13061;SDS011;6597;52.218;9.882;2023-10-09T02:06:45;13.80;;;4.07;;
13061;SDS011;6597;52.218;9.882;2023-10-09T02:09:16;15.60;;;4.13;;
13061;SDS011;6597;52.218;9.882;2023-10-09T02:11:49;12.10;;;3.57;;
13061;SDS011;6597;52.218;9.882;2023-10-09T02:14:16;9.80;;;3.47;;
13061;SDS011;6597;52.218;9.882;2023-10-09T02:16:45;7.53;;;3.47;;
13061;SDS011;6597;52.218;9.882;2023-10-09T02:19:28;7.53;;;3.07;;
13061;SDS011;6597;52.218;9.882;2023-10-09T02:21:58;7.00;;;3.20;;
13061;SDS011;6597;52.218;9.882;2023-10-09T02:24:27;8.43;;;3.27;;
13061;SDS011;6597;52.218;9.882;2023-10-09T02:27:15;6.77;;;3.27;;
13061;SDS011;6597;52.218;9.882;2023-10-09T02:30:05;10.53;;;3.40;;
13061;SDS011;6597;52.218;9.882;2023-10-09T02:32:43;9.50;;;3.27;;
13061;SDS011;6597;52.218;9.882;2023-10-09T02:35:14;10.80;;;3.30;;
13061;SDS011;6597;52.218;9.882;2023-10-09T02:37:53;10.20;;;3.87;;
13061;SDS011;6597;52.218;9.882;2023-10-09T02:40:20;12.00;;;3.40;;
13061;SDS011;6597;52.218;9.882;2023-10-09T02:42:52;7.57;;;3.50;;
13061;SDS011;6597;52.218;9.882;2023-10-09T02:45:19;10.70;;;3.80;;
13061;SDS011;6597;52.218;9.882;2023-10-09T02:47:53;4.33;;;2.80;;
13061;SDS011;6597;52.218;9.882;2023-10-09T02:50:20;8.30;;;3.40;;
13061;SDS011;6597;52.218;9.882;2023-10-09T02:52:48;7.10;;;3.20;;
13061;SDS011;6597;52.218;9.882;2023-10-09T02:55:19;4.80;;;3.10;;
13061;SDS011;6597;52.218;9.882;2023-10-09T02:57:52;4.43;;;3.00;;
13061;SDS011;6597;52.218;9.882;2023-10-09T03:00:31;4.73;;;3.23;;
13061;SDS011;6597;52.218;9.882;2023-10-09T03:03:01;10.87;;;3.27;;
13061;SDS011;6597;52.218;9.882;2023-10-09T03:05:31;6.37;;;2.90;;
13061;SDS011;6597;52.218;9.882;2023-10-09T03:07:58;5.70;;;3.10;;
13061;SDS011;6597;52.218;9.882;2023-10-09T03:10:25;4.87;;;2.97;;
13061;SDS011;6597;52.218;9.882;2023-10-09T03:12:53;4.93;;;2.97;;
13061;SDS011;6597;52.218;9.882;2023-10-09T03:15:20;6.27;;;3.70;;
13061;SDS011;6597;52.218;9.882;2023-10-09T03:17:46;11.13;;;3.10;;
13061;SDS011;6597;52.218;9.882;2023-10-09T03:20:14;7.77;;;3.63;;
13061;SDS011;6597;52.218;9.882;2023-10-09T03:22:42;13.93;;;4.73;;
13061;SDS011;6597;52.218;9.882;2023-10-09T03:25:11;7.07;;;4.27;;
13061;SDS011;6597;52.218;9.882;2023-10-09T03:27:39;9.43;;;4.50;;
13061;SDS011;6597;52.218;9.882;2023-10-09T03:30:12;9.87;;;5.00;;
13061;SDS011;6597;52.218;9.882;2023-10-09T03:32:47;9.20;;;5.00;;
13061;SDS011;6597;52.218;9.882;2023-10-09T03:35:16;6.10;;;4.53;;
13061;SDS011;6597;52.218;9.882;2023-10-09T03:37:49;9.73;;;4.93;;
13061;SDS011;6597;52.218;9.882;2023-10-09T03:40:17;10.40;;;4.83;;
13061;SDS011;6597;52.218;9.882;2023-10-09T03:42:44;10.90;;;4.90;;
13061;SDS011;6597;52.218;9.882;2023-10-09T03:45:12;11.77;;;5.53;;
13061;SDS011;6597;52.218;9.882;2023-10-09T03:47:49;10.63;;;6.03;;
13061;SDS011;6597;52.218;9.882;2023-10-09T03:50:22;14.90;;;6.00;;
13061;SDS011;6597;52.218;9.882;2023-10-09T03:52:52;9.23;;;6.70;;
13061;SDS011;6597;52.218;9.882;2023-10-09T03:55:20;13.80;;;7.07;;
13061;SDS011;6597;52.218;9.882;2023-10-09T03:57:53;14.33;;;7.17;;
13061;SDS011;6597;52.218;9.882;2023-10-09T04:00:24;15.17;;;8.10;;
13061;SDS011;6597;52.218;9.882;2023-10-09T04:02:53;13.70;;;7.83;;
13061;SDS011;6597;52.218;9.882;2023-10-09T04:05:20;16.43;;;7.30;;
13061;SDS011;6597;52.218;9.882;2023-10-09T04:07:47;15.87;;;7.60;;
13061;SDS011;6597;52.218;9.882;2023-10-09T04:10:14;17.00;;;8.27;;
13061;SDS011;6597;52.218;9.882;2023-10-09T04:13:02;13.17;;;8.47;;
13061;SDS011;6597;52.218;9.882;2023-10-09T04:15:35;15.00;;;8.67;;
13061;SDS011;6597;52.218;9.882;2023-10-09T04:18:02;20.13;;;8.70;;
13061;SDS011;6597;52.218;9.882;2023-10-09T04:20:30;14.80;;;8.10;;
13061;SDS011;6597;52.218;9.882;2023-10-09T04:23:11;22.57;;;10.47;;
13061;SDS011;6597;52.218;9.882;2023-10-09T04:25:41;15.70;;;9.40;;
13061;SDS011;6597;52.218;9.882;2023-10-09T04:28:07;14.57;;;9.73;;
13061;SDS011;6597;52.218;9.882;2023-10-09T04:30:36;23.97;;;10.57;;
13061;SDS011;6597;52.218;9.882;2023-10-09T04:33:05;16.60;;;9.70;;
13061;SDS011;6597;52.218;9.882;2023-10-09T04:35:36;18.10;;;10.40;;
13061;SDS011;6597;52.218;9.882;2023-10-09T04:38:03;20.07;;;9.93;;
13061;SDS011;6597;52.218;9.882;2023-10-09T04:40:31;22.40;;;9.87;;
13061;SDS011;6597;52.218;9.882;2023-10-09T04:43:19;21.23;;;10.90;;
13061;SDS011;6597;52.218;9.882;2023-10-09T04:45:48;26.83;;;11.20;;
13061;SDS011;6597;52.218;9.882;2023-10-09T04:48:32;18.63;;;10.97;;
13061;SDS011;6597;52.218;9.882;2023-10-09T04:51:03;20.07;;;12.23;;
13061;SDS011;6597;52.218;9.882;2023-10-09T04:53:52;26.17;;;12.17;;
13061;SDS011;6597;52.218;9.882;2023-10-09T04:56:25;20.43;;;11.50;;
13061;SDS011;6597;52.218;9.882;2023-10-09T04:58:57;18.93;;;12.33;;
13061;SDS011;6597;52.218;9.882;2023-10-09T05:01:30;20.77;;;13.47;;
13061;SDS011;6597;52.218;9.882;2023-10-09T05:04:08;27.97;;;14.10;;
13061;SDS011;6597;52.218;9.882;2023-10-09T05:06:52;24.20;;;15.90;;
13061;SDS011;6597;52.218;9.882;2023-10-09T05:09:21;26.50;;;15.03;;
13061;SDS011;6597;52.218;9.882;2023-10-09T05:11:48;23.87;;;15.93;;
13061;SDS011;6597;52.218;9.882;2023-10-09T05:14:34;30.27;;;17.83;;
13061;SDS011;6597;52.218;9.882;2023-10-09T05:17:12;31.67;;;18.40;;
13061;SDS011;6597;52.218;9.882;2023-10-09T05:19:42;37.00;;;20.50;;
13061;SDS011;6597;52.218;9.882;2023-10-09T05:22:20;33.33;;;22.47;;
13061;SDS011;6597;52.218;9.882;2023-10-09T05:25:01;42.47;;;23.80;;
13061;SDS011;6597;52.218;9.882;2023-10-09T05:27:28;43.00;;;25.30;;
13061;SDS011;6597;52.218;9.882;2023-10-09T05:30:15;38.17;;;24.73;;
13061;SDS011;6597;52.218;9.882;2023-10-09T05:32:52;39.97;;;25.70;;
13061;SDS011;6597;52.218;9.882;2023-10-09T05:35:23;38.63;;;24.37;;
13061;SDS011;6597;52.218;9.882;2023-10-09T05:38:05;50.50;;;26.70;;
13061;SDS011;6597;52.218;9.882;2023-10-09T05:40:49;40.10;;;26.80;;
13061;SDS011;6597;52.218;9.882;2023-10-09T05:43:19;43.03;;;26.20;;
13061;SDS011;6597;52.218;9.882;2023-10-09T05:46:00;46.60;;;26.23;;
13061;SDS011;6597;52.218;9.882;2023-10-09T05:48:41;41.20;;;26.10;;
13061;SDS011;6597;52.218;9.882;2023-10-09T05:51:34;43.23;;;24.87;;
13061;SDS011;6597;52.218;9.882;2023-10-09T05:54:07;41.73;;;26.00;;
13061;SDS011;6597;52.218;9.882;2023-10-09T05:57:08;42.83;;;23.80;;
13061;SDS011;6597;52.218;9.882;2023-10-09T06:00:07;44.43;;;24.90;;
13061;SDS011;6597;52.218;9.882;2023-10-09T06:03:07;44.00;;;25.00;;
13061;SDS011;6597;52.218;9.882;2023-10-09T06:05:51;47.07;;;24.60;;
13061;SDS011;6597;52.218;9.882;2023-10-09T06:08:29;40.80;;;24.40;;
13061;SDS011;6597;52.218;9.882;2023-10-09T06:11:11;36.00;;;23.27;;
13061;SDS011;6597;52.218;9.882;2023-10-09T06:13:52;35.67;;;23.33;;
13061;SDS011;6597;52.218;9.882;2023-10-09T06:16:28;36.40;;;22.67;;
13061;SDS011;6597;52.218;9.882;2023-10-09T06:19:06;42.43;;;23.57;;
13061;SDS011;6597;52.218;9.882;2023-10-09T06:21:39;41.23;;;22.97;;
13061;SDS011;6597;52.218;9.882;2023-10-09T06:24:25;42.13;;;23.30;;
13061;SDS011;6597;52.218;9.882;2023-10-09T06:26:58;43.17;;;22.77;;
13061;SDS011;6597;52.218;9.882;2023-10-09T06:29:49;40.50;;;22.83;;
13061;SDS011;6597;52.218;9.882;2023-10-09T06:32:38;42.90;;;24.53;;
13061;SDS011;6597;52.218;9.882;2023-10-09T06:35:14;40.37;;;23.70;;
13061;SDS011;6597;52.218;9.882;2023-10-09T06:37:49;36.17;;;23.13;;
13061;SDS011;6597;52.218;9.882;2023-10-09T06:40:35;42.23;;;23.60;;
13061;SDS011;6597;52.218;9.882;2023-10-09T06:43:20;42.77;;;23.80;;
13061;SDS011;6597;52.218;9.882;2023-10-09T06:45:54;40.63;;;23.87;;
13061;SDS011;6597;52.218;9.882;2023-10-09T06:48:23;38.60;;;23.33;;
13061;SDS011;6597;52.218;9.882;2023-10-09T06:51:21;41.27;;;23.23;;
13061;SDS011;6597;52.218;9.882;2023-10-09T06:54:07;43.10;;;23.93;;
13061;SDS011;6597;52.218;9.882;2023-10-09T06:56:43;37.97;;;22.93;;
13061;SDS011;6597;52.218;9.882;2023-10-09T06:59:27;45.03;;;23.37;;
13061;SDS011;6597;52.218;9.882;2023-10-09T07:02:06;44.30;;;22.67;;
13061;SDS011;6597;52.218;9.882;2023-10-09T07:04:51;38.87;;;23.10;;
13061;SDS011;6597;52.218;9.882;2023-10-09T07:07:20;39.87;;;23.70;;
13061;SDS011;6597;52.218;9.882;2023-10-09T07:09:51;48.73;;;23.97;;
13061;SDS011;6597;52.218;9.882;2023-10-09T07:12:35;36.43;;;22.93;;
13061;SDS011;6597;52.218;9.882;2023-10-09T07:15:08;40.63;;;23.63;;
13061;SDS011;6597;52.218;9.882;2023-10-09T07:17:52;42.47;;;25.33;;
13061;SDS011;6597;52.218;9.882;2023-10-09T07:20:20;47.23;;;24.37;;
13061;SDS011;6597;52.218;9.882;2023-10-09T07:23:10;45.07;;;25.00;;
13061;SDS011;6597;52.218;9.882;2023-10-09T07:25:47;47.30;;;24.90;;
13061;SDS011;6597;52.218;9.882;2023-10-09T07:28:23;48.67;;;24.83;;
13061;SDS011;6597;52.218;9.882;2023-10-09T07:31:02;50.43;;;26.97;;
13061;SDS011;6597;52.218;9.882;2023-10-09T07:33:29;43.47;;;24.37;;
13061;SDS011;6597;52.218;9.882;2023-10-09T07:36:17;42.63;;;24.33;;
13061;SDS011;6597;52.218;9.882;2023-10-09T07:38:54;47.47;;;25.23;;
13061;SDS011;6597;52.218;9.882;2023-10-09T07:41:30;48.83;;;23.37;;
13061;SDS011;6597;52.218;9.882;2023-10-09T07:44:05;41.97;;;23.90;;
13061;SDS011;6597;52.218;9.882;2023-10-09T07:46:46;45.90;;;24.23;;
13061;SDS011;6597;52.218;9.882;2023-10-09T07:49:38;47.03;;;23.60;;
13061;SDS011;6597;52.218;9.882;2023-10-09T07:52:04;44.30;;;25.00;;
13061;SDS011;6597;52.218;9.882;2023-10-09T07:54:31;49.53;;;25.03;;
13061;SDS011;6597;52.218;9.882;2023-10-09T07:56:59;43.97;;;24.67;;
13061;SDS011;6597;52.218;9.882;2023-10-09T07:59:34;48.77;;;25.27;;
13061;SDS011;6597;52.218;9.882;2023-10-09T08:02:06;41.90;;;25.17;;
13061;SDS011;6597;52.218;9.882;2023-10-09T08:04:38;45.90;;;25.73;;
13061;SDS011;6597;52.218;9.882;2023-10-09T08:07:14;44.90;;;25.77;;
13061;SDS011;6597;52.218;9.882;2023-10-09T08:09:50;48.57;;;25.43;;
13061;SDS011;6597;52.218;9.882;2023-10-09T08:12:39;43.53;;;25.93;;
13061;SDS011;6597;52.218;9.882;2023-10-09T08:15:23;39.00;;;25.00;;
13061;SDS011;6597;52.218;9.882;2023-10-09T08:17:59;49.53;;;27.13;;
13061;SDS011;6597;52.218;9.882;2023-10-09T08:20:35;46.17;;;26.17;;
13061;SDS011;6597;52.218;9.882;2023-10-09T08:23:22;48.23;;;26.57;;
13061;SDS011;6597;52.218;9.882;2023-10-09T08:25:58;45.83;;;27.40;;
13061;SDS011;6597;52.218;9.882;2023-10-09T08:28:39;46.90;;;27.70;;
13061;SDS011;6597;52.218;9.882;2023-10-09T08:31:08;52.20;;;28.77;;
13061;SDS011;6597;52.218;9.882;2023-10-09T08:33:44;47.53;;;27.43;;
13061;SDS011;6597;52.218;9.882;2023-10-09T08:36:10;47.80;;;27.43;;
13061;SDS011;6597;52.218;9.882;2023-10-09T08:38:40;54.47;;;29.20;;
13061;SDS011;6597;52.218;9.882;2023-10-09T08:41:08;46.77;;;27.93;;
13061;SDS011;6597;52.218;9.882;2023-10-09T08:43:49;45.87;;;27.80;;
13061;SDS011;6597;52.218;9.882;2023-10-09T08:46:18;47.67;;;29.30;;
13061;SDS011;6597;52.218;9.882;2023-10-09T08:48:47;45.60;;;29.47;;
13061;SDS011;6597;52.218;9.882;2023-10-09T08:51:14;60.63;;;30.33;;
13061;SDS011;6597;52.218;9.882;2023-10-09T08:53:43;48.07;;;28.33;;
13061;SDS011;6597;52.218;9.882;2023-10-09T08:56:11;45.00;;;29.17;;
13061;SDS011;6597;52.218;9.882;2023-10-09T08:58:40;44.20;;;28.83;;
13061;SDS011;6597;52.218;9.882;2023-10-09T09:01:08;52.10;;;28.73;;
13061;SDS011;6597;52.218;9.882;2023-10-09T09:03:40;45.63;;;28.10;;
13061;SDS011;6597;52.218;9.882;2023-10-09T09:06:08;41.77;;;27.47;;
13061;SDS011;6597;52.218;9.882;2023-10-09T09:08:36;39.33;;;25.93;;
13061;SDS011;6597;52.218;9.882;2023-10-09T09:11:03;47.20;;;26.33;;
13061;SDS011;6597;52.218;9.882;2023-10-09T09:13:38;43.87;;;27.20;;
13061;SDS011;6597;52.218;9.882;2023-10-09T09:16:14;45.27;;;27.33;;
13061;SDS011;6597;52.218;9.882;2023-10-09T09:18:55;44.90;;;27.13;;
13061;SDS011;6597;52.218;9.882;2023-10-09T09:21:28;39.87;;;26.93;;
13061;SDS011;6597;52.218;9.882;2023-10-09T09:23:55;43.63;;;26.50;;
13061;SDS011;6597;52.218;9.882;2023-10-09T09:26:34;45.57;;;26.53;;
13061;SDS011;6597;52.218;9.882;2023-10-09T09:29:10;42.30;;;25.53;;
13061;SDS011;6597;52.218;9.882;2023-10-09T09:31:39;42.73;;;27.07;;
13061;SDS011;6597;52.218;9.882;2023-10-09T09:34:18;37.20;;;24.60;;
13061;SDS011;6597;52.218;9.882;2023-10-09T09:36:50;38.93;;;24.60;;
13061;SDS011;6597;52.218;9.882;2023-10-09T09:39:22;41.87;;;25.63;;
13061;SDS011;6597;52.218;9.882;2023-10-09T09:41:54;39.13;;;26.17;;
13061;SDS011;6597;52.218;9.882;2023-10-09T09:44:23;37.37;;;26.17;;
13061;SDS011;6597;52.218;9.882;2023-10-09T09:46:57;48.03;;;27.60;;
13061;SDS011;6597;52.218;9.882;2023-10-09T09:49:26;44.10;;;26.83;;
13061;SDS011;6597;52.218;9.882;2023-10-09T09:51:57;39.47;;;26.30;;
13061;SDS011;6597;52.218;9.882;2023-10-09T09:54:35;38.77;;;28.00;;
13061;SDS011;6597;52.218;9.882;2023-10-09T09:57:03;40.97;;;27.47;;
13061;SDS011;6597;52.218;9.882;2023-10-09T09:59:36;41.27;;;28.13;;
13061;SDS011;6597;52.218;9.882;2023-10-09T10:02:18;39.70;;;28.60;;
13061;SDS011;6597;52.218;9.882;2023-10-09T10:04:47;48.67;;;29.50;;
13061;SDS011;6597;52.218;9.882;2023-10-09T10:07:21;38.60;;;28.60;;
13061;SDS011;6597;52.218;9.882;2023-10-09T10:09:51;41.77;;;28.50;;
13061;SDS011;6597;52.218;9.882;2023-10-09T10:18:31;43.03;;;30.00;;
13061;SDS011;6597;52.218;9.882;2023-10-09T10:21:09;41.73;;;29.73;;
13061;SDS011;6597;52.218;9.882;2023-10-09T10:23:40;43.23;;;30.13;;
13061;SDS011;6597;52.218;9.882;2023-10-09T10:26:16;43.87;;;29.93;;
13061;SDS011;6597;52.218;9.882;2023-10-09T10:28:53;44.03;;;29.00;;
13061;SDS011;6597;52.218;9.882;2023-10-09T10:31:54;38.17;;;29.70;;
13061;SDS011;6597;52.218;9.882;2023-10-09T10:34:24;43.37;;;29.77;;
13061;SDS011;6597;52.218;9.882;2023-10-09T10:36:51;39.47;;;30.23;;
13061;SDS011;6597;52.218;9.882;2023-10-09T10:39:24;37.47;;;27.57;;
13061;SDS011;6597;52.218;9.882;2023-10-09T10:42:08;39.13;;;28.93;;
13061;SDS011;6597;52.218;9.882;2023-10-09T10:44:40;33.00;;;26.60;;
13061;SDS011;6597;52.218;9.882;2023-10-09T10:47:11;32.20;;;25.13;;
13061;SDS011;6597;52.218;9.882;2023-10-09T10:49:51;34.17;;;24.93;;
13061;SDS011;6597;52.218;9.882;2023-10-09T10:52:23;34.00;;;23.33;;
13061;SDS011;6597;52.218;9.882;2023-10-09T10:55:07;29.17;;;22.00;;
13061;SDS011;6597;52.218;9.882;2023-10-09T10:57:42;27.40;;;21.97;;
13061;SDS011;6597;52.218;9.882;2023-10-09T11:00:29;31.90;;;22.93;;
13061;SDS011;6597;52.218;9.882;2023-10-09T11:03:18;31.33;;;20.03;;
13061;SDS011;6597;52.218;9.882;2023-10-09T11:05:56;26.47;;;19.70;;
13061;SDS011;6597;52.218;9.882;2023-10-09T11:08:40;24.30;;;18.67;;
13061;SDS011;6597;52.218;9.882;2023-10-09T11:11:19;30.40;;;20.80;;
13061;SDS011;6597;52.218;9.882;2023-10-09T11:13:47;25.27;;;21.00;;
13061;SDS011;6597;52.218;9.882;2023-10-09T11:16:19;31.17;;;20.23;;
13061;SDS011;6597;52.218;9.882;2023-10-09T11:19:07;27.07;;;20.83;;
13061;SDS011;6597;52.218;9.882;2023-10-09T11:21:49;32.03;;;21.00;;
13061;SDS011;6597;52.218;9.882;2023-10-09T11:24:24;29.43;;;22.33;;
13061;SDS011;6597;52.218;9.882;2023-10-09T11:26:52;35.03;;;23.57;;
13061;SDS011;6597;52.218;9.882;2023-10-09T11:29:24;33.80;;;23.33;;
13061;SDS011;6597;52.218;9.882;2023-10-09T11:32:14;29.60;;;22.17;;
13061;SDS011;6597;52.218;9.882;2023-10-09T11:34:43;31.77;;;23.33;;
13061;SDS011;6597;52.218;9.882;2023-10-09T11:37:18;30.07;;;23.67;;
13061;SDS011;6597;52.218;9.882;2023-10-09T11:40:03;29.30;;;23.93;;
13061;SDS011;6597;52.218;9.882;2023-10-09T11:42:48;31.50;;;24.00;;
13061;SDS011;6597;52.218;9.882;2023-10-09T11:45:22;30.20;;;24.43;;
13061;SDS011;6597;52.218;9.882;2023-10-09T11:47:49;31.50;;;24.57;;
13061;SDS011;6597;52.218;9.882;2023-10-09T11:50:39;30.75;;;23.73;;
13061;SDS011;6597;52.218;9.882;2023-10-09T11:53:09;29.50;;;21.37;;
13061;SDS011;6597;52.218;9.882;2023-10-09T11:55:45;26.08;;;19.38;;
13061;SDS011;6597;52.218;9.882;2023-10-09T11:58:14;22.47;;;19.03;;
13061;SDS011;6597;52.218;9.882;2023-10-09T12:00:48;24.93;;;18.90;;
13061;SDS011;6597;52.218;9.882;2023-10-09T12:03:16;22.43;;;16.67;;
13061;SDS011;6597;52.218;9.882;2023-10-09T12:05:46;23.57;;;18.17;;
13061;SDS011;6597;52.218;9.882;2023-10-09T12:08:14;20.60;;;15.97;;
13061;SDS011;6597;52.218;9.882;2023-10-09T12:10:42;18.97;;;15.37;;
13061;SDS011;6597;52.218;9.882;2023-10-09T12:13:09;24.60;;;14.67;;
13061;SDS011;6597;52.218;9.882;2023-10-09T12:15:35;15.07;;;12.53;;
13061;SDS011;6597;52.218;9.882;2023-10-09T12:18:05;12.87;;;11.57;;
13061;SDS011;6597;52.218;9.882;2023-10-09T12:20:39;10.50;;;9.40;;
13061;SDS011;6597;52.218;9.882;2023-10-09T12:23:07;11.00;;;8.40;;
13061;SDS011;6597;52.218;9.882;2023-10-09T12:25:39;9.25;;;7.88;;
13061;SDS011;6597;52.218;9.882;2023-10-09T12:28:10;11.87;;;7.30;;
13061;SDS011;6597;52.218;9.882;2023-10-09T12:30:38;8.80;;;6.63;;
13061;SDS011;6597;52.218;9.882;2023-10-09T12:33:06;8.83;;;7.10;;
13061;SDS011;6597;52.218;9.882;2023-10-09T12:35:36;7.97;;;6.27;;
13061;SDS011;6597;52.218;9.882;2023-10-09T12:38:03;8.87;;;7.00;;
13061;SDS011;6597;52.218;9.882;2023-10-09T12:40:33;6.77;;;6.00;;
13061;SDS011;6597;52.218;9.882;2023-10-09T12:43:02;10.20;;;6.97;;
13061;SDS011;6597;52.218;9.882;2023-10-09T12:45:29;9.20;;;7.10;;
13061;SDS011;6597;52.218;9.882;2023-10-09T12:47:57;8.23;;;7.43;;
13061;SDS011;6597;52.218;9.882;2023-10-09T12:50:27;8.77;;;7.23;;
13061;SDS011;6597;52.218;9.882;2023-10-09T12:52:55;8.20;;;6.63;;
13061;SDS011;6597;52.218;9.882;2023-10-09T12:55:22;10.00;;;7.90;;
13061;SDS011;6597;52.218;9.882;2023-10-09T12:57:57;7.73;;;7.00;;
13061;SDS011;6597;52.218;9.882;2023-10-09T13:00:30;12.30;;;7.53;;
13061;SDS011;6597;52.218;9.882;2023-10-09T13:02:57;8.90;;;7.70;;
13061;SDS011;6597;52.218;9.882;2023-10-09T13:05:26;8.73;;;7.83;;
13061;SDS011;6597;52.218;9.882;2023-10-09T13:07:53;13.37;;;7.80;;
13061;SDS011;6597;52.218;9.882;2023-10-09T13:10:21;9.23;;;8.20;;
13061;SDS011;6597;52.218;9.882;2023-10-09T13:12:49;9.47;;;8.57;;
13061;SDS011;6597;52.218;9.882;2023-10-09T13:15:20;10.20;;;8.60;;
13061;SDS011;6597;52.218;9.882;2023-10-09T13:17:49;14.30;;;9.00;;
13061;SDS011;6597;52.218;9.882;2023-10-09T13:20:18;12.60;;;9.60;;
13061;SDS011;6597;52.218;9.882;2023-10-09T13:22:45;12.97;;;10.10;;
13061;SDS011;6597;52.218;9.882;2023-10-09T13:25:13;11.53;;;10.10;;
13061;SDS011;6597;52.218;9.882;2023-10-09T13:27:42;16.47;;;10.83;;
13061;SDS011;6597;52.218;9.882;2023-10-09T13:30:16;11.57;;;10.40;;
13061;SDS011;6597;52.218;9.882;2023-10-09T13:32:49;14.73;;;10.97;;
13061;SDS011;6597;52.218;9.882;2023-10-09T13:35:17;14.33;;;11.30;;
13061;SDS011;6597;52.218;9.882;2023-10-09T13:37:44;14.00;;;11.20;;
13061;SDS011;6597;52.218;9.882;2023-10-09T13:40:19;18.67;;;11.80;;
13061;SDS011;6597;52.218;9.882;2023-10-09T13:42:52;14.13;;;10.87;;
13061;SDS011;6597;52.218;9.882;2023-10-09T13:45:24;12.93;;;10.90;;
13061;SDS011;6597;52.218;9.882;2023-10-09T13:47:55;11.83;;;10.00;;
13061;SDS011;6597;52.218;9.882;2023-10-09T13:50:23;15.88;;;10.95;;
13061;SDS011;6597;52.218;9.882;2023-10-09T13:52:54;15.68;;;11.13;;
13061;SDS011;6597;52.218;9.882;2023-10-09T13:55:21;14.20;;;11.43;;
13061;SDS011;6597;52.218;9.882;2023-10-09T13:57:50;14.85;;;11.70;;
13061;SDS011;6597;52.218;9.882;2023-10-09T14:00:16;14.00;;;11.10;;
13061;SDS011;6597;52.218;9.882;2023-10-09T14:02:59;15.32;;;11.45;;
13061;SDS011;6597;52.218;9.882;2023-10-09T14:05:26;15.20;;;11.32;;
13061;SDS011;6597;52.218;9.882;2023-10-09T14:07:53;12.30;;;11.00;;
13061;SDS011;6597;52.218;9.882;2023-10-09T14:10:25;12.63;;;11.25;;
13061;SDS011;6597;52.218;9.882;2023-10-09T14:12:55;13.93;;;11.82;;
13061;SDS011;6597;52.218;9.882;2023-10-09T14:15:22;13.40;;;11.82;;
13061;SDS011;6597;52.218;9.882;2023-10-09T14:17:49;16.95;;;12.57;;
13061;SDS011;6597;52.218;9.882;2023-10-09T14:20:22;14.55;;;11.27;;
13061;SDS011;6597;52.218;9.882;2023-10-09T14:22:58;12.30;;;10.25;;
13061;SDS011;6597;52.218;9.882;2023-10-09T14:25:31;12.60;;;10.88;;
13061;SDS011;6597;52.218;9.882;2023-10-09T14:27:58;13.82;;;11.45;;
13061;SDS011;6597;52.218;9.882;2023-10-09T14:30:25;18.50;;;11.13;;
13061;SDS011;6597;52.218;9.882;2023-10-09T14:32:58;13.80;;;10.98;;
13061;SDS011;6597;52.218;9.882;2023-10-09T14:35:28;11.23;;;10.10;;
13061;SDS011;6597;52.218;9.882;2023-10-09T14:37:55;13.65;;;9.88;;
13061;SDS011;6597;52.218;9.882;2023-10-09T14:40:22;12.88;;;10.07;;
13061;SDS011;6597;52.218;9.882;2023-10-09T14:42:55;14.35;;;10.68;;
13061;SDS011;6597;52.218;9.882;2023-10-09T14:45:23;16.48;;;10.80;;
13061;SDS011;6597;52.218;9.882;2023-10-09T14:47:51;14.23;;;11.07;;
13061;SDS011;6597;52.218;9.882;2023-10-09T14:50:19;14.15;;;11.48;;
13061;SDS011;6597;52.218;9.882;2023-10-09T14:52:48;16.73;;;11.05;;
13061;SDS011;6597;52.218;9.882;2023-10-09T14:55:15;12.93;;;10.77;;
13061;SDS011;6597;52.218;9.882;2023-10-09T14:57:46;16.10;;;10.57;;
13061;SDS011;6597;52.218;9.882;2023-10-09T15:00:15;11.90;;;10.48;;
13061;SDS011;6597;52.218;9.882;2023-10-09T15:02:48;14.93;;;11.23;;
13061;SDS011;6597;52.218;9.882;2023-10-09T15:05:15;11.57;;;10.38;;
13061;SDS011;6597;52.218;9.882;2023-10-09T15:07:42;16.05;;;10.85;;
13061;SDS011;6597;52.218;9.882;2023-10-09T15:10:11;13.38;;;11.30;;
13061;SDS011;6597;52.218;9.882;2023-10-09T15:12:40;14.50;;;11.82;;
13061;SDS011;6597;52.218;9.882;2023-10-09T15:15:08;13.02;;;11.68;;
13061;SDS011;6597;52.218;9.882;2023-10-09T15:17:39;13.48;;;12.18;;
13061;SDS011;6597;52.218;9.882;2023-10-09T15:20:09;14.00;;;12.45;;
13061;SDS011;6597;52.218;9.882;2023-10-09T15:22:39;19.35;;;14.00;;
13061;SDS011;6597;52.218;9.882;2023-10-09T15:25:06;14.48;;;12.77;;